Time;durP1;ratioP1;P1;durP2;ratioP2;P2;SDS_P1;SDS_P2;PMS_P1;PMS_P2;Temp;Humidity;BMP_temperature;BMP_pressure;BME280_temperature;BME280_humidity;BME280_pressure;Samples;Min_cycle;Max_cycle;Signal;HPM_P1;HPM_P2
2022/03/22 00:00:49;;;;;;;52.83;22.90;;;5.20;99.90;;;;;;6162016;23;20021;-80
2022/03/22 00:03:16;;;;;;;45.03;22.65;;;5.20;99.90;;;;;;6189094;23;20031;-80
2022/03/22 00:05:44;;;;;;;56.10;21.27;;;5.20;99.90;;;;;;6188331;23;20013;-80
2022/03/22 00:08:10;;;;;;;52.65;23.90;;;5.20;99.90;;;;;;6189309;23;20135;-80
2022/03/22 00:10:36;;;;;;;49.75;23.65;;;5.20;99.90;;;;;;6160850;23;20526;-80
2022/03/22 00:13:05;;;;;;;50.00;24.33;;;5.20;99.90;;;;;;6161394;23;20064;-80
2022/03/22 00:15:31;;;;;;;53.60;21.30;;;5.20;99.90;;;;;;6162865;23;20442;-80
2022/03/22 00:17:57;;;;;;;47.53;20.40;;;5.30;99.90;;;;;;6190019;23;20017;-80
2022/03/22 00:20:23;;;;;;;47.78;21.52;;;5.20;99.90;;;;;;6162827;23;20345;-80
2022/03/22 00:22:49;;;;;;;49.42;21.63;;;5.20;99.90;;;;;;6162410;23;20124;-80
2022/03/22 00:25:16;;;;;;;50.47;20.05;;;5.20;99.90;;;;;;6162612;23;20603;-80
2022/03/22 00:27:52;;;;;;;42.03;19.88;;;5.20;99.90;;;;;;6161904;23;20028;-80
2022/03/22 00:30:24;;;;;;;52.35;20.85;;;5.20;99.90;;;;;;6188505;23;20059;-80
2022/03/22 00:32:53;;;;;;;45.30;19.92;;;5.20;99.90;;;;;;6163971;23;20009;-80
2022/03/22 00:35:29;;;;;;;42.65;19.20;;;5.20;99.90;;;;;;6139478;23;20016;-80
2022/03/22 00:37:57;;;;;;;46.83;20.63;;;5.20;99.90;;;;;;6140510;23;20020;-80
2022/03/22 00:40:27;;;;;;;46.63;21.95;;;5.20;99.90;;;;;;6163681;23;20414;-80
2022/03/22 00:42:53;;;;;;;45.35;22.02;;;5.20;99.90;;;;;;6137851;23;20051;-80
2022/03/22 00:45:21;;;;;;;40.47;20.05;;;5.10;99.90;;;;;;6138837;23;20048;-80
2022/03/22 00:47:49;;;;;;;48.42;22.10;;;5.10;99.90;;;;;;6137775;23;20041;-80
2022/03/22 00:50:17;;;;;;;56.40;22.73;;;5.10;99.90;;;;;;6138064;23;20044;-80
2022/03/22 00:52:43;;;;;;;49.17;21.33;;;5.10;99.90;;;;;;6164674;23;20009;-79
2022/03/22 00:55:10;;;;;;;53.88;21.95;;;5.00;99.90;;;;;;6141540;23;20032;-79
2022/03/22 00:57:36;;;;;;;46.38;23.20;;;5.00;99.90;;;;;;6163320;23;20009;-79
2022/03/22 01:00:06;;;;;;;45.08;22.67;;;5.00;99.90;;;;;;6141170;23;20037;-79
2022/03/22 01:02:37;;;;;;;46.20;21.95;;;5.00;99.90;;;;;;6163955;23;20458;-79
2022/03/22 01:05:07;;;;;;;56.60;22.08;;;5.00;99.90;;;;;;6139272;23;20013;-79
2022/03/22 01:07:34;;;;;;;47.25;23.63;;;5.00;99.90;;;;;;6165484;23;20017;-79
2022/03/22 01:10:06;;;;;;;54.17;21.75;;;5.00;99.90;;;;;;6139742;23;20024;-79
2022/03/22 01:12:34;;;;;;;49.50;22.58;;;5.00;99.90;;;;;;6140497;23;20013;-80
2022/03/22 01:15:00;;;;;;;47.92;21.92;;;5.10;99.90;;;;;;6139987;23;20017;-80
2022/03/22 01:17:25;;;;;;;47.92;22.98;;;5.10;99.90;;;;;;6139819;23;20024;-80
2022/03/22 01:19:51;;;;;;;49.38;21.80;;;5.20;99.90;;;;;;6162838;23;20017;-80
2022/03/22 01:22:17;;;;;;;48.75;22.50;;;5.20;99.90;;;;;;6137348;23;20024;-80
2022/03/22 01:24:44;;;;;;;52.10;24.08;;;5.20;99.90;;;;;;6162134;23;20017;-80
2022/03/22 01:27:10;;;;;;;45.45;21.20;;;5.20;99.90;;;;;;6136173;23;20024;-80
2022/03/22 01:29:37;;;;;;;48.72;23.33;;;5.20;99.90;;;;;;6138080;23;20417;-80
2022/03/22 01:32:04;;;;;;;50.45;22.05;;;5.20;99.90;;;;;;6162287;23;20386;-80
2022/03/22 01:34:30;;;;;;;47.50;22.92;;;5.20;99.90;;;;;;6137423;23;20013;-80
2022/03/22 01:36:55;;;;;;;44.28;21.10;;;5.20;99.90;;;;;;6137591;23;20143;-80
2022/03/22 01:39:21;;;;;;;53.97;22.10;;;5.10;99.90;;;;;;6162300;23;20017;-80
2022/03/22 01:41:47;;;;;;;44.88;20.88;;;5.20;99.90;;;;;;6162271;23;20013;-80
2022/03/22 01:44:12;;;;;;;51.42;21.75;;;5.20;99.90;;;;;;6162006;23;20013;-80
2022/03/22 01:46:39;;;;;;;48.85;23.05;;;5.20;99.90;;;;;;6189161;23;20017;-80
2022/03/22 01:49:05;;;;;;;48.40;21.40;;;5.10;99.90;;;;;;6138048;23;20009;-80
2022/03/22 01:51:32;;;;;;;45.17;21.25;;;5.10;99.90;;;;;;6137470;23;20013;-80
2022/03/22 01:53:58;;;;;;;49.83;22.52;;;5.10;99.90;;;;;;6161920;23;20040;-80
2022/03/22 01:56:25;;;;;;;44.75;20.92;;;5.10;99.90;;;;;;6162206;23;20466;-80
2022/03/22 01:58:51;;;;;;;51.40;21.15;;;5.00;99.90;;;;;;6163056;23;20017;-80
2022/03/22 02:06:51;;;;;;;45.22;21.27;;;5.10;99.90;;;;;;6162638;23;20025;-80
2022/03/22 02:09:17;;;;;;;49.45;21.23;;;5.00;99.90;;;;;;6162249;23;20013;-80
2022/03/22 02:11:42;;;;;;;46.88;21.35;;;5.00;99.90;;;;;;6189358;23;20019;-80
2022/03/22 02:14:09;;;;;;;44.30;20.58;;;5.00;99.90;;;;;;6189110;23;20016;-80
2022/03/22 02:16:34;;;;;;;45.63;20.52;;;5.00;99.90;;;;;;6163440;23;20013;-80
2022/03/22 02:19:00;;;;;;;48.20;19.30;;;5.00;99.90;;;;;;6189720;23;20419;-80
2022/03/22 02:21:30;;;;;;;41.25;19.05;;;4.90;99.90;;;;;;6163575;23;20041;-80
2022/03/22 02:23:56;;;;;;;46.85;21.70;;;4.90;99.90;;;;;;6163553;23;20068;-80
2022/03/22 02:26:22;;;;;;;44.85;19.80;;;4.90;99.90;;;;;;6163622;23;20024;-80
2022/03/22 02:28:53;;;;;;;45.83;20.30;;;4.80;99.90;;;;;;6164971;23;20005;-80
2022/03/22 02:31:20;;;;;;;41.42;20.05;;;4.80;99.90;;;;;;6164330;23;20017;-80
2022/03/22 02:33:46;;;;;;;50.33;23.15;;;4.80;99.90;;;;;;6140018;23;20009;-80
2022/03/22 02:36:12;;;;;;;39.92;19.90;;;4.80;99.90;;;;;;6165054;23;20020;-80
2022/03/22 02:38:38;;;;;;;44.85;19.40;;;4.80;99.90;;;;;;6164651;23;20021;-80
2022/03/22 02:41:05;;;;;;;50.08;21.60;;;4.90;99.90;;;;;;6163930;23;20446;-80
2022/03/22 02:43:32;;;;;;;45.55;20.90;;;4.90;99.90;;;;;;6164555;23;20021;-81
2022/03/22 02:45:57;;;;;;;51.13;21.90;;;5.00;99.90;;;;;;6162812;23;20013;-81
2022/03/22 02:48:23;;;;;;;48.55;22.75;;;4.90;99.90;;;;;;6162526;23;20386;-80
2022/03/22 02:50:49;;;;;;;50.47;21.70;;;5.00;99.90;;;;;;6136837;23;20096;-81
2022/03/22 02:53:15;;;;;;;45.33;21.83;;;5.00;99.90;;;;;;6162580;23;20328;-80
2022/03/22 02:55:40;;;;;;;50.75;24.30;;;5.10;99.90;;;;;;6162674;23;20037;-80
2022/03/22 02:58:06;;;;;;;48.42;23.13;;;5.10;99.90;;;;;;6162250;23;20017;-80
2022/03/22 03:00:31;;;;;;;47.28;23.05;;;5.20;99.90;;;;;;6163348;23;20058;-81
2022/03/22 03:02:57;;;;;;;49.97;22.70;;;5.20;99.90;;;;;;6162725;23;20048;-80
2022/03/22 03:05:23;;;;;;;50.20;22.75;;;5.20;99.90;;;;;;6164177;23;20013;-80
2022/03/22 03:07:50;;;;;;;51.65;22.50;;;5.30;99.90;;;;;;6163706;23;20395;-80
2022/03/22 03:10:16;;;;;;;46.65;20.98;;;5.30;99.90;;;;;;6163401;23;20028;-80
2022/03/22 03:12:42;;;;;;;45.45;20.70;;;5.30;99.90;;;;;;6138657;23;20009;-80
2022/03/22 03:15:09;;;;;;;44.35;22.15;;;5.30;99.90;;;;;;6139215;23;20079;-80
2022/03/22 03:17:35;;;;;;;53.38;23.27;;;5.30;99.90;;;;;;6138748;23;20009;-80
2022/03/22 03:20:01;;;;;;;50.47;22.45;;;5.30;99.90;;;;;;6138139;23;20017;-80
2022/03/22 03:22:27;;;;;;;55.00;22.50;;;5.30;99.90;;;;;;6164478;23;20071;-80
2022/03/22 03:24:52;;;;;;;45.83;21.40;;;5.30;99.90;;;;;;6164037;23;20378;-80
2022/03/22 03:27:18;;;;;;;45.72;21.23;;;5.40;99.90;;;;;;6139088;23;20017;-80
2022/03/22 03:29:44;;;;;;;47.92;22.88;;;5.40;99.90;;;;;;6138303;23;20005;-80
2022/03/22 03:32:10;;;;;;;47.72;21.55;;;5.40;99.90;;;;;;6163624;23;20100;-80
2022/03/22 03:34:36;;;;;;;52.83;22.05;;;5.40;99.90;;;;;;6164683;23;20020;-80
2022/03/22 03:37:02;;;;;;;49.58;23.15;;;5.40;99.90;;;;;;6164316;23;20036;-80
2022/03/22 03:39:28;;;;;;;53.03;22.92;;;5.30;99.90;;;;;;6162901;23;20017;-81
2022/03/22 03:41:53;;;;;;;49.72;22.88;;;5.30;99.90;;;;;;6138099;23;20051;-80
2022/03/22 03:47:13;;;;;;;51.05;23.05;;;5.30;99.90;;;;;;6162155;23;20021;-80
2022/03/22 03:49:46;;;;;;;44.58;22.38;;;5.30;99.90;;;;;;6162283;23;20013;-80
2022/03/22 03:52:14;;;;;;;46.67;21.60;;;5.20;99.90;;;;;;6161081;23;20446;-80
2022/03/22 03:54:40;;;;;;;47.55;21.65;;;5.20;99.90;;;;;;6162854;23;20017;-80
2022/03/22 03:57:07;;;;;;;51.17;21.23;;;5.10;99.90;;;;;;6136883;23;20013;-80
2022/03/22 03:59:34;;;;;;;46.15;22.25;;;5.10;99.90;;;;;;6162315;23;20525;-80
2022/03/22 04:02:00;;;;;;;46.95;23.45;;;5.10;99.90;;;;;;6163219;23;20021;-80
2022/03/22 04:04:25;;;;;;;50.88;22.17;;;5.10;99.90;;;;;;6139087;23;20071;-80
2022/03/22 04:06:51;;;;;;;52.80;23.33;;;5.10;99.90;;;;;;6161865;23;20439;-80
2022/03/22 04:09:17;;;;;;;44.90;20.90;;;5.00;99.90;;;;;;6162599;23;20442;-80
2022/03/22 04:11:44;;;;;;;46.83;22.85;;;5.00;99.90;;;;;;6137635;23;20072;-80
2022/03/22 04:14:10;;;;;;;46.28;22.75;;;4.90;99.90;;;;;;6162197;23;20013;-80
2022/03/22 04:16:36;;;;;;;47.80;21.75;;;4.90;99.90;;;;;;6162249;23;20093;-80
2022/03/22 04:19:03;;;;;;;47.70;22.83;;;4.80;99.90;;;;;;6163187;23;20027;-80
2022/03/22 04:21:29;;;;;;;49.15;23.42;;;4.80;99.90;;;;;;6162441;23;20012;-80
2022/03/22 04:23:55;;;;;;;51.28;24.13;;;4.80;99.90;;;;;;6162427;23;20013;-80
2022/03/22 04:26:20;;;;;;;45.97;22.23;;;4.70;99.90;;;;;;6138204;23;20044;-80
2022/03/22 04:34:15;;;;;;;53.00;21.58;;;4.60;99.90;;;;;;6161509;23;20019;-81
2022/03/22 04:36:40;;;;;;;48.38;22.85;;;4.60;99.90;;;;;;6137975;23;20064;-80
2022/03/22 04:39:06;;;;;;;55.17;22.50;;;4.60;99.90;;;;;;6161469;23;20009;-80
2022/03/22 04:41:31;;;;;;;50.33;23.40;;;4.60;99.90;;;;;;6138020;23;20347;-80
2022/03/22 04:43:57;;;;;;;48.33;23.02;;;4.60;99.90;;;;;;6162007;23;20446;-80
2022/03/22 04:46:23;;;;;;;54.17;22.90;;;4.60;99.90;;;;;;6136625;23;20048;-80
2022/03/22 04:48:48;;;;;;;50.47;24.67;;;4.60;99.90;;;;;;6160804;23;20032;-80
2022/03/22 04:56:48;;;;;;;51.40;23.17;;;4.70;99.90;;;;;;6161880;23;20017;-80
2022/03/22 04:59:16;;;;;;;55.03;22.10;;;4.70;99.90;;;;;;6161327;23;20023;-80
2022/03/22 05:01:42;;;;;;;56.08;23.77;;;4.70;99.90;;;;;;6135813;23;20127;-80
2022/03/22 05:04:10;;;;;;;48.42;23.83;;;4.60;99.90;;;;;;6161383;23;20052;-80
2022/03/22 05:06:37;;;;;;;50.20;23.35;;;4.60;99.90;;;;;;6136630;23;20063;-80
2022/03/22 05:09:06;;;;;;;52.00;24.02;;;4.60;99.90;;;;;;6161739;23;20435;-80
2022/03/22 05:11:32;;;;;;;52.22;23.52;;;4.50;99.90;;;;;;6160580;23;20028;-80
2022/03/22 05:13:59;;;;;;;46.78;22.17;;;4.50;99.90;;;;;;6160303;23;20350;-80
2022/03/22 05:16:25;;;;;;;48.40;24.17;;;4.50;99.90;;;;;;6135983;23;20020;-80
2022/03/22 05:18:51;;;;;;;51.72;24.48;;;4.50;99.90;;;;;;6160181;23;20020;-80
2022/03/22 05:21:17;;;;;;;55.55;24.08;;;4.60;99.90;;;;;;6136413;23;20020;-79
2022/03/22 05:23:47;;;;;;;45.42;22.13;;;4.50;99.90;;;;;;6141514;23;20016;-79
2022/03/22 05:26:16;;;;;;;80.10;39.97;;;4.50;99.90;;;;;;6137568;23;20020;-80
2022/03/22 05:28:42;;;;;;;66.45;31.20;;;4.50;99.90;;;;;;6139662;23;20005;-80
2022/03/22 05:31:10;;;;;;;47.00;22.15;;;4.50;99.90;;;;;;6159806;23;20017;-81
2022/03/22 05:33:36;;;;;;;52.15;26.13;;;4.40;99.90;;;;;;6160178;23;20462;-80
2022/03/22 05:36:02;;;;;;;50.55;22.35;;;4.40;99.90;;;;;;6197136;23;20015;-80
2022/03/22 05:38:28;;;;;;;43.83;22.42;;;4.30;99.90;;;;;;6166532;23;20088;-80
2022/03/22 05:40:54;;;;;;;50.72;24.50;;;4.30;99.90;;;;;;6141506;23;20362;-81
2022/03/22 05:43:20;;;;;;;48.95;22.27;;;4.30;99.90;;;;;;6166952;23;20021;-79
2022/03/22 05:45:49;;;;;;;51.55;23.33;;;4.20;99.90;;;;;;6166366;23;20013;-80
2022/03/22 05:48:15;;;;;;;49.95;23.20;;;4.20;99.90;;;;;;6141450;23;20013;-81
2022/03/22 05:50:41;;;;;;;63.72;29.45;;;4.20;99.90;;;;;;6139529;23;20084;-81
2022/03/22 05:53:07;;;;;;;61.63;27.15;;;4.30;99.90;;;;;;6164533;23;20032;-81
2022/03/22 05:55:32;;;;;;;51.65;24.88;;;4.20;99.90;;;;;;6162490;23;20044;-81
2022/03/22 05:57:58;;;;;;;53.35;23.42;;;4.30;99.90;;;;;;6158470;23;20074;-81
2022/03/22 06:00:24;;;;;;;50.63;23.73;;;4.30;99.90;;;;;;6165560;23;20100;-81
2022/03/22 06:02:49;;;;;;;49.92;23.42;;;4.30;99.90;;;;;;6136093;23;20021;-81
2022/03/22 06:05:15;;;;;;;52.90;23.75;;;4.30;99.90;;;;;;6162474;23;20088;-81
2022/03/22 06:07:41;;;;;;;54.40;25.58;;;4.40;99.90;;;;;;6139217;23;20028;-80
2022/03/22 06:10:09;;;;;;;50.30;24.92;;;4.40;99.90;;;;;;6133014;23;20021;-83
2022/03/22 06:12:39;;;;;;;90.20;37.78;;;4.50;99.90;;;;;;6158107;23;20009;-82
2022/03/22 06:15:16;;;;;;;49.47;24.45;;;4.50;99.90;;;;;;6157665;23;20013;-81
2022/03/22 06:17:48;;;;;;;56.92;26.27;;;4.50;99.90;;;;;;6162388;23;20032;-81
2022/03/22 06:20:15;;;;;;;56.90;25.47;;;4.60;99.90;;;;;;6142413;23;20013;-81
2022/03/22 06:22:41;;;;;;;60.97;26.23;;;4.70;99.90;;;;;;6141285;23;20065;-82
2022/03/22 06:25:07;;;;;;;95.28;42.83;;;4.80;99.90;;;;;;6157825;23;20474;-81
2022/03/22 06:27:35;;;;;;;87.05;39.28;;;4.90;99.90;;;;;;6160633;23;20037;-81
2022/03/22 06:30:03;;;;;;;59.78;26.70;;;5.00;99.90;;;;;;6167485;23;20051;-82
2022/03/22 06:32:29;;;;;;;134.68;60.30;;;5.10;99.90;;;;;;6161529;23;20720;-81
2022/03/22 06:34:54;;;;;;;64.55;29.95;;;5.20;99.90;;;;;;6162919;23;20013;-81
2022/03/22 06:37:21;;;;;;;68.90;29.63;;;5.30;99.90;;;;;;6137344;23;20024;-81
2022/03/22 06:39:47;;;;;;;68.20;31.65;;;5.40;99.90;;;;;;6161170;23;20013;-80
2022/03/22 06:42:13;;;;;;;57.55;26.63;;;5.40;99.90;;;;;;6142115;23;20422;-80
2022/03/22 06:44:40;;;;;;;55.70;28.05;;;5.50;99.90;;;;;;6169781;23;20040;-81
2022/03/22 06:47:06;;;;;;;49.67;23.27;;;5.60;99.90;;;;;;6162048;23;20013;-81
2022/03/22 06:49:31;;;;;;;47.40;23.15;;;5.70;99.90;;;;;;6137505;23;20088;-80
2022/03/22 06:51:57;;;;;;;46.03;22.73;;;5.80;99.90;;;;;;6162554;23;20024;-81
2022/03/22 06:54:23;;;;;;;50.83;23.25;;;5.90;99.90;;;;;;6162364;23;20084;-81
2022/03/22 06:56:48;;;;;;;48.95;22.23;;;6.00;99.90;;;;;;6163773;23;20064;-80
2022/03/22 06:59:14;;;;;;;52.90;24.25;;;6.10;99.90;;;;;;6159290;23;20013;-80
2022/03/22 07:01:39;;;;;;;51.15;25.48;;;6.30;99.90;;;;;;6135205;23;20049;-81
2022/03/22 07:04:05;;;;;;;51.38;25.33;;;6.50;99.90;;;;;;6159185;23;20013;-81
2022/03/22 07:06:31;;;;;;;49.38;22.27;;;6.70;99.90;;;;;;6158960;23;20021;-81
2022/03/22 07:08:57;;;;;;;48.25;23.48;;;6.90;99.90;;;;;;6159127;23;20041;-81
2022/03/22 07:14:10;;;;;;;49.60;22.95;;;7.40;99.90;;;;;;6158845;23;20087;-81
2022/03/22 07:16:36;;;;;;;55.20;24.75;;;7.70;99.90;;;;;;6158817;23;20454;-81
2022/03/22 07:19:01;;;;;;;45.30;24.25;;;7.80;99.90;;;;;;6159205;23;20020;-81
2022/03/22 07:21:29;;;;;;;48.83;23.23;;;8.10;99.90;;;;;;6158832;23;20009;-81
2022/03/22 07:23:55;;;;;;;44.55;23.30;;;8.50;99.90;;;;;;6159185;23;20064;-81
2022/03/22 07:26:22;;;;;;;50.47;24.27;;;9.10;99.90;;;;;;6159136;23;20029;-81
2022/03/22 07:28:48;;;;;;;51.15;23.73;;;9.60;99.90;;;;;;6159632;23;20032;-81
2022/03/22 07:31:13;;;;;;;46.25;23.92;;;10.20;99.90;;;;;;6159993;23;20020;-81
2022/03/22 07:33:39;;;;;;;38.15;20.67;;;10.60;99.90;;;;;;6158851;23;20593;-81
2022/03/22 07:36:05;;;;;;;44.33;21.85;;;11.00;99.90;;;;;;6158671;23;20013;-81
2022/03/22 07:38:31;;;;;;;37.85;19.27;;;11.30;99.90;;;;;;6158511;23;20052;-81
2022/03/22 07:40:56;;;;;;;37.83;20.08;;;11.60;99.90;;;;;;6133608;23;20016;-81
2022/03/22 07:43:23;;;;;;;37.90;20.80;;;11.90;99.90;;;;;;6158124;23;20025;-81
2022/03/22 07:45:49;;;;;;;34.13;18.73;;;12.10;99.90;;;;;;6158124;23;20021;-81
2022/03/22 07:48:16;;;;;;;40.35;19.38;;;12.40;99.90;;;;;;6158134;23;20403;-81
2022/03/22 07:53:25;;;;;;;34.20;18.98;;;12.90;99.90;;;;;;6158207;23;20024;-81
2022/03/22 07:55:51;;;;;;;31.27;18.15;;;13.00;99.90;;;;;;6158137;23;20009;-81
2022/03/22 07:58:17;;;;;;;31.27;18.50;;;13.20;99.90;;;;;;6158865;23;20020;-81
2022/03/22 08:00:43;;;;;;;34.20;19.70;;;13.30;99.90;;;;;;6159823;23;20457;-81
2022/03/22 08:03:12;;;;;;;32.42;18.73;;;13.40;99.90;;;;;;6159673;23;20019;-81
2022/03/22 08:05:39;;;;;;;31.15;18.88;;;13.60;99.90;;;;;;6160235;23;20374;-81
2022/03/22 08:08:05;;;;;;;35.53;18.25;;;13.70;99.90;;;;;;6160932;23;20020;-81
2022/03/22 08:10:31;;;;;;;32.10;17.42;;;13.80;99.90;;;;;;6159769;23;20063;-81
2022/03/22 08:13:00;;;;;;;35.88;19.05;;;13.90;99.90;;;;;;6161126;23;20080;-80
2022/03/22 08:15:26;;;;;;;38.55;19.73;;;13.90;99.90;;;;;;6160694;23;20024;-80
2022/03/22 08:17:52;;;;;;;32.88;18.35;;;14.00;99.90;;;;;;6135921;23;20009;-80
2022/03/22 08:20:17;;;;;;;33.22;19.23;;;14.20;99.90;;;;;;6162520;23;20390;-80
2022/03/22 08:22:59;;;;;;;36.40;18.10;;;14.40;99.90;;;;;;6135867;23;20013;-80
2022/03/22 08:25:34;;;;;;;32.83;18.07;;;14.70;99.90;;;;;;6135997;23;20013;-81
2022/03/22 08:28:03;;;;;;;29.55;18.40;;;14.80;99.90;;;;;;6159788;23;20010;-81
2022/03/22 08:30:30;;;;;;;32.00;18.83;;;14.70;99.90;;;;;;6157261;23;20040;-81
2022/03/22 08:32:58;;;;;;;29.83;17.95;;;14.60;99.90;;;;;;6157449;23;20013;-81
2022/03/22 08:35:24;;;;;;;32.38;17.63;;;14.50;99.90;;;;;;6157170;23;20049;-81
2022/03/22 08:37:51;;;;;;;33.58;18.35;;;14.50;99.90;;;;;;6157224;23;20415;-81
2022/03/22 08:40:17;;;;;;;34.28;18.88;;;14.60;99.90;;;;;;6132342;23;20087;-81
2022/03/22 08:42:47;;;;;;;39.15;19.05;;;14.70;99.90;;;;;;6159187;23;20024;-81
2022/03/22 08:45:15;;;;;;;32.60;18.33;;;14.90;99.90;;;;;;6158439;23;20028;-81
2022/03/22 08:47:42;;;;;;;30.83;18.77;;;15.10;99.90;;;;;;6160963;23;20024;-81
2022/03/22 08:50:12;;;;;;;31.65;17.45;;;15.30;99.90;;;;;;6137052;23;20013;-82
2022/03/22 08:52:39;;;;;;;27.08;16.50;;;15.50;99.90;;;;;;6160249;23;20439;-82
2022/03/22 08:55:07;;;;;;;31.48;18.15;;;15.70;99.90;;;;;;6158462;23;20009;-82
2022/03/22 08:57:34;;;;;;;31.00;19.02;;;15.90;99.90;;;;;;6185215;23;20013;-81
2022/03/22 08:59:59;;;;;;;32.92;18.58;;;16.10;99.90;;;;;;6133968;23;20104;-81
2022/03/22 09:02:25;;;;;;;34.22;18.70;;;16.10;99.90;;;;;;6159420;23;20454;-82
2022/03/22 09:07:35;;;;;;;33.33;18.25;;;16.20;99.90;;;;;;6158613;23;20405;-82
2022/03/22 09:10:00;;;;;;;33.67;19.63;;;16.20;99.90;;;;;;6157655;23;20044;-82
2022/03/22 09:12:26;;;;;;;31.80;19.85;;;16.20;99.90;;;;;;6158871;23;20040;-82
2022/03/22 09:14:53;;;;;;;43.22;20.27;;;16.50;99.90;;;;;;6157722;23;20010;-82
2022/03/22 09:17:20;;;;;;;30.40;17.67;;;16.70;99.90;;;;;;6158229;23;20005;-82
2022/03/22 09:19:46;;;;;;;31.38;18.45;;;16.90;99.90;;;;;;6157680;23;20323;-82
2022/03/22 09:22:11;;;;;;;30.13;18.30;;;17.10;99.90;;;;;;6133382;23;20015;-82
2022/03/22 09:24:37;;;;;;;33.35;19.75;;;17.10;99.90;;;;;;6158406;23;20094;-82
2022/03/22 09:27:03;;;;;;;32.40;20.45;;;17.30;99.90;;;;;;6139339;23;20025;-82
2022/03/22 09:29:29;;;;;;;33.05;20.20;;;17.40;99.90;;;;;;6153365;23;20013;-82
2022/03/22 09:31:55;;;;;;;33.45;20.52;;;17.60;99.90;;;;;;6128250;23;20020;-82
2022/03/22 09:34:22;;;;;;;35.25;20.92;;;17.70;99.90;;;;;;6154329;23;20013;-82
2022/03/22 09:36:47;;;;;;;35.65;19.88;;;17.80;99.90;;;;;;6128101;23;20056;-82
2022/03/22 09:39:13;;;;;;;33.60;20.08;;;17.90;99.90;;;;;;6128727;23;20061;-82
2022/03/22 09:41:39;;;;;;;31.67;20.83;;;18.10;99.90;;;;;;6127823;23;20026;-82
2022/03/22 09:44:04;;;;;;;31.20;20.77;;;18.20;99.90;;;;;;6129758;23;20093;-82
2022/03/22 09:46:32;;;;;;;33.80;19.15;;;18.30;99.90;;;;;;6130822;23;20021;-82
2022/03/22 09:48:58;;;;;;;29.67;19.50;;;18.40;99.90;;;;;;6130166;23;20009;-82
2022/03/22 09:54:09;;;;;;;32.25;19.55;;;18.70;99.90;;;;;;6129816;23;20024;-82
2022/03/22 09:56:34;;;;;;;33.67;20.42;;;18.80;99.70;;;;;;6106258;23;20010;-82
2022/03/22 09:59:03;;;;;;;31.33;19.17;;;18.90;99.70;;;;;;6129477;23;20473;-82
2022/03/22 10:01:30;;;;;;;32.33;19.73;;;19.10;96.90;;;;;;6129146;23;20367;-82
2022/03/22 10:04:00;;;;;;;34.38;19.10;;;19.40;97.90;;;;;;6154397;23;20080;-82
2022/03/22 10:06:27;;;;;;;32.83;19.15;;;19.50;91.60;;;;;;6130474;23;20013;-82
2022/03/22 10:08:52;;;;;;;31.73;20.33;;;19.60;93.20;;;;;;6104449;23;20088;-82
2022/03/22 10:11:18;;;;;;;30.77;19.40;;;19.60;93.40;;;;;;6128033;23;20398;-82
2022/03/22 10:13:54;;;;;;;32.92;19.50;;;19.70;94.20;;;;;;6154508;23;20020;-82
2022/03/22 10:16:20;;;;;;;33.13;19.50;;;19.60;62.20;;;;;;6129459;23;20014;-82
2022/03/22 10:18:46;;;;;;;32.15;20.20;;;19.60;93.20;;;;;;6140053;23;20057;-82
2022/03/22 10:21:12;;;;;;;35.17;20.27;;;19.40;91.80;;;;;;6143641;23;20323;-82
2022/03/22 10:23:49;;;;;;;34.45;19.45;;;19.30;92.90;;;;;;6143672;23;20076;-82
2022/03/22 10:26:15;;;;;;;34.10;18.90;;;19.20;67.30;;;;;;6151458;23;20021;-82
2022/03/22 10:28:55;;;;;;;33.47;19.40;;;19.00;92.00;;;;;;6172467;23;20036;-82
2022/03/22 10:31:35;;;;;;;33.53;19.83;;;18.80;71.30;;;;;;6172975;23;20048;-82
2022/03/22 10:34:01;;;;;;;32.55;19.27;;;18.60;73.10;;;;;;6171347;23;20055;-82
2022/03/22 10:36:27;;;;;;;33.92;19.73;;;18.40;94.10;;;;;;6160219;23;20025;-83
2022/03/22 10:38:57;;;;;;;30.50;18.55;;;18.30;94.60;;;;;;6161843;23;20017;-82
2022/03/22 10:41:25;;;;;;;31.95;18.48;;;18.20;92.60;;;;;;6161053;23;20021;-82
2022/03/22 10:44:04;;;;;;;34.22;19.02;;;18.20;94.60;;;;;;6160380;23;20039;-83
2022/03/22 10:46:30;;;;;;;33.13;19.10;;;18.20;88.50;;;;;;6163819;23;20013;-82
2022/03/22 10:49:08;;;;;;;30.98;17.67;;;18.20;93.00;;;;;;6160308;23;20496;-83
2022/03/22 10:51:54;;;;;;;32.38;16.95;;;18.20;86.00;;;;;;6159305;23;20052;-83
2022/03/22 10:54:21;;;;;;;32.33;17.15;;;18.20;60.90;;;;;;6184291;23;20013;-83
2022/03/22 10:56:52;;;;;;;28.20;18.45;;;18.10;86.20;;;;;;6159401;23;20108;-83
2022/03/22 10:59:21;;;;;;;28.33;17.33;;;18.20;87.30;;;;;;6159890;23;20013;-83
2022/03/22 11:01:48;;;;;;;37.08;19.85;;;18.20;88.50;;;;;;6159934;23;20547;-83
2022/03/22 11:04:16;;;;;;;32.05;18.60;;;18.40;88.10;;;;;;6160371;23;20013;-83
2022/03/22 11:06:43;;;;;;;30.35;17.77;;;18.50;86.10;;;;;;6160017;23;20047;-83
2022/03/22 11:09:09;;;;;;;30.00;16.80;;;18.50;80.50;;;;;;6159667;23;20686;-83
2022/03/22 11:11:36;;;;;;;29.55;17.42;;;18.50;90.90;;;;;;6134414;23;20017;-82
2022/03/22 11:14:02;;;;;;;35.38;18.23;;;18.40;90.40;;;;;;6159325;23;20013;-83
2022/03/22 11:16:30;;;;;;;28.75;16.92;;;18.50;90.10;;;;;;6135111;23;20020;-83
2022/03/22 11:19:00;;;;;;;31.40;16.70;;;18.60;85.80;;;;;;6159743;23;20442;-83
2022/03/22 11:21:27;;;;;;;32.85;17.05;;;18.70;73.20;;;;;;6134648;23;20040;-82
2022/03/22 11:24:11;;;;;;;28.45;17.02;;;18.70;78.80;;;;;;6159695;23;20021;-82
2022/03/22 11:26:44;;;;;;;33.17;17.52;;;18.80;71.80;;;;;;6159382;23;20013;-82
2022/03/22 11:29:15;;;;;;;35.22;17.15;;;18.80;67.70;;;;;;6158779;23;20021;-83
2022/03/22 11:31:42;;;;;;;30.87;17.33;;;18.90;70.60;;;;;;6134210;23;20009;-82
2022/03/22 11:34:09;;;;;;;31.27;16.98;;;18.90;77.70;;;;;;6158682;23;20013;-82
2022/03/22 11:36:46;;;;;;;36.92;18.25;;;19.00;69.20;;;;;;6158351;23;20489;-82
2022/03/22 11:42:15;;;;;;;38.15;18.75;;;19.00;58.40;;;;;;6158833;23;20013;-82
2022/03/22 11:42:17;;;;;;;37.95;17.45;;;19.10;61.70;;;;;;6159056;23;20090;-82
2022/03/22 11:45:00;;;;;;;36.08;17.63;;;19.10;64.60;;;;;;6160476;23;20059;-82
2022/03/22 11:47:37;;;;;;;34.42;18.23;;;19.10;56.70;;;;;;6136770;23;20024;-82
2022/03/22 11:50:06;;;;;;;32.42;17.42;;;19.10;59.80;;;;;;6159632;23;20013;-82
2022/03/22 11:52:43;;;;;;;28.52;15.95;;;19.20;64.90;;;;;;6159604;23;20253;-82
2022/03/22 11:55:18;;;;;;;35.60;16.88;;;19.20;64.30;;;;;;6160336;23;20020;-82
2022/03/22 11:57:50;;;;;;;31.25;16.10;;;19.40;56.90;;;;;;6159976;23;20443;-82
2022/03/22 12:00:46;;;;;;;34.55;16.30;;;19.40;55.50;;;;;;6158195;23;20009;-82
2022/03/22 12:03:16;;;;;;;33.28;16.45;;;19.50;55.30;;;;;;6158669;23;20064;-82
2022/03/22 12:05:43;;;;;;;27.00;15.30;;;19.60;54.50;;;;;;6158523;23;20020;-82
2022/03/22 12:08:11;;;;;;;28.27;15.30;;;19.70;61.80;;;;;;6157830;23;20010;-81
2022/03/22 12:10:37;;;;;;;30.42;16.65;;;19.70;59.30;;;;;;6157881;23;20021;-82
2022/03/22 12:13:03;;;;;;;30.88;15.95;;;19.80;61.30;;;;;;6158086;23;20068;-82
2022/03/22 12:15:29;;;;;;;30.55;16.90;;;19.90;57.70;;;;;;6158247;23;20017;-82
2022/03/22 12:17:56;;;;;;;34.47;17.60;;;19.90;58.60;;;;;;6158257;23;20012;-82
2022/03/22 12:20:23;;;;;;;29.95;15.82;;;19.90;58.90;;;;;;6157645;23;20390;-82
2022/03/22 12:23:00;;;;;;;28.38;14.40;;;19.90;58.90;;;;;;6158255;23;20461;-82
2022/03/22 12:25:36;;;;;;;27.40;16.45;;;19.90;57.50;;;;;;6157670;23;20005;-82
2022/03/22 12:28:07;;;;;;;31.00;15.68;;;19.90;55.00;;;;;;6157995;23;20028;-82
2022/03/22 12:30:35;;;;;;;29.25;15.70;;;19.90;57.80;;;;;;6184132;23;20017;-82
2022/03/22 12:33:07;;;;;;;30.55;15.85;;;19.90;56.80;;;;;;6158198;23;20009;-82
2022/03/22 12:35:34;;;;;;;26.80;15.07;;;20.00;56.90;;;;;;6133782;23;20013;-82
2022/03/22 12:38:00;;;;;;;27.42;15.88;;;20.10;56.50;;;;;;6133598;23;20037;-82
2022/03/22 12:40:26;;;;;;;29.63;15.05;;;20.10;56.90;;;;;;6157815;23;20009;-82
2022/03/22 12:42:53;;;;;;;27.67;15.43;;;20.10;56.90;;;;;;6157467;23;20059;-81
2022/03/22 12:45:20;;;;;;;27.48;14.95;;;20.00;55.20;;;;;;6158383;23;20009;-82
2022/03/22 12:47:48;;;;;;;27.98;15.93;;;20.00;55.70;;;;;;6160248;23;20016;-82
2022/03/22 12:50:15;;;;;;;33.22;16.35;;;20.10;55.50;;;;;;6162998;23;20017;-82
2022/03/22 12:52:41;;;;;;;28.48;14.95;;;20.00;54.40;;;;;;6167891;23;20458;-82
2022/03/22 12:55:10;;;;;;;28.17;15.05;;;20.00;55.20;;;;;;6168331;23;20016;-82
2022/03/22 12:57:38;;;;;;;28.83;15.38;;;20.00;54.00;;;;;;6170685;23;20072;-82
2022/03/22 13:00:05;;;;;;;29.02;15.02;;;20.00;54.20;;;;;;6146147;23;20438;-82
2022/03/22 13:02:31;;;;;;;25.77;15.65;;;20.00;53.50;;;;;;6170095;23;20031;-82
2022/03/22 13:04:56;;;;;;;26.58;14.52;;;20.10;56.10;;;;;;6167192;23;20096;-82